sensor_id;sensor_type;location;lat;lon;timestamp;P1;durP1;ratioP1;P2;durP2;ratioP2
30458;SDS011;17254;50.976;7.034;2022-12-11T00:00:03;44.85;;;23.20;;
30458;SDS011;17254;50.976;7.034;2022-12-11T00:00:11;46.13;;;23.50;;
30458;SDS011;17254;50.976;7.034;2022-12-11T00:00:19;47.40;;;23.54;;
30458;SDS011;17254;50.976;7.034;2022-12-11T00:00:25;46.28;;;23.20;;
30458;SDS011;17254;50.976;7.034;2022-12-11T00:00:31;46.10;;;23.27;;
30458;SDS011;17254;50.976;7.034;2022-12-11T00:00:37;44.88;;;22.95;;
30458;SDS011;17254;50.976;7.034;2022-12-11T00:00:43;44.00;;;23.23;;
30458;SDS011;17254;50.976;7.034;2022-12-11T00:00:49;43.27;;;23.27;;
30458;SDS011;17254;50.976;7.034;2022-12-11T00:00:55;45.70;;;23.70;;
30458;SDS011;17254;50.976;7.034;2022-12-11T00:01:06;46.63;;;23.98;;
30458;SDS011;17254;50.976;7.034;2022-12-11T00:01:14;47.01;;;23.89;;
30458;SDS011;17254;50.976;7.034;2022-12-11T00:01:24;46.60;;;23.99;;
30458;SDS011;17254;50.976;7.034;2022-12-11T00:01:29;45.70;;;23.70;;
30458;SDS011;17254;50.976;7.034;2022-12-11T00:01:36;45.50;;;23.93;;
30458;SDS011;17254;50.976;7.034;2022-12-11T00:01:42;45.10;;;24.30;;
30458;SDS011;17254;50.976;7.034;2022-12-11T00:01:48;45.00;;;24.08;;
30458;SDS011;17254;50.976;7.034;2022-12-11T00:01:54;45.38;;;24.33;;
30458;SDS011;17254;50.976;7.034;2022-12-11T00:02:00;43.83;;;24.30;;
30458;SDS011;17254;50.976;7.034;2022-12-11T00:02:06;43.53;;;24.48;;
30458;SDS011;17254;50.976;7.034;2022-12-11T00:02:12;44.10;;;24.55;;
30458;SDS011;17254;50.976;7.034;2022-12-11T00:02:18;44.85;;;24.75;;
30458;SDS011;17254;50.976;7.034;2022-12-11T00:02:25;46.72;;;25.30;;
30458;SDS011;17254;50.976;7.034;2022-12-11T00:02:32;46.67;;;25.00;;
30458;SDS011;17254;50.976;7.034;2022-12-11T00:02:38;46.97;;;24.45;;
30458;SDS011;17254;50.976;7.034;2022-12-11T00:02:44;48.24;;;24.66;;
30458;SDS011;17254;50.976;7.034;2022-12-11T00:02:50;47.38;;;24.70;;
30458;SDS011;17254;50.976;7.034;2022-12-11T00:02:56;46.03;;;24.42;;
30458;SDS011;17254;50.976;7.034;2022-12-11T00:03:02;47.77;;;25.13;;
30458;SDS011;17254;50.976;7.034;2022-12-11T00:03:08;48.05;;;25.17;;
30458;SDS011;17254;50.976;7.034;2022-12-11T00:03:14;45.65;;;24.33;;
30458;SDS011;17254;50.976;7.034;2022-12-11T00:03:20;45.25;;;23.80;;
30458;SDS011;17254;50.976;7.034;2022-12-11T00:03:26;45.63;;;23.35;;
30458;SDS011;17254;50.976;7.034;2022-12-11T00:03:32;47.42;;;23.65;;
30458;SDS011;17254;50.976;7.034;2022-12-11T00:03:38;48.13;;;24.58;;
30458;SDS011;17254;50.976;7.034;2022-12-11T00:03:44;50.23;;;25.73;;
30458;SDS011;17254;50.976;7.034;2022-12-11T00:03:50;50.60;;;26.30;;
30458;SDS011;17254;50.976;7.034;2022-12-11T00:03:57;50.65;;;26.92;;
30458;SDS011;17254;50.976;7.034;2022-12-11T00:04:03;48.20;;;26.38;;
30458;SDS011;17254;50.976;7.034;2022-12-11T00:04:09;45.97;;;25.70;;
30458;SDS011;17254;50.976;7.034;2022-12-11T00:04:14;45.03;;;25.52;;
30458;SDS011;17254;50.976;7.034;2022-12-11T00:04:22;45.68;;;25.68;;
30458;SDS011;17254;50.976;7.034;2022-12-11T00:04:29;46.52;;;25.48;;
30458;SDS011;17254;50.976;7.034;2022-12-11T00:04:35;47.17;;;25.33;;
30458;SDS011;17254;50.976;7.034;2022-12-11T00:04:41;50.28;;;25.38;;
30458;SDS011;17254;50.976;7.034;2022-12-11T00:04:47;50.33;;;25.38;;
30458;SDS011;17254;50.976;7.034;2022-12-11T00:04:53;50.70;;;25.48;;
30458;SDS011;17254;50.976;7.034;2022-12-11T00:04:59;50.63;;;25.48;;
30458;SDS011;17254;50.976;7.034;2022-12-11T00:05:05;50.20;;;25.30;;
30458;SDS011;17254;50.976;7.034;2022-12-11T00:05:11;48.77;;;25.47;;
30458;SDS011;17254;50.976;7.034;2022-12-11T00:05:17;48.43;;;25.77;;
30458;SDS011;17254;50.976;7.034;2022-12-11T00:05:23;47.33;;;25.85;;
30458;SDS011;17254;50.976;7.034;2022-12-11T00:05:30;46.90;;;26.87;;
30458;SDS011;17254;50.976;7.034;2022-12-11T00:05:37;48.88;;;27.25;;
30458;SDS011;17254;50.976;7.034;2022-12-11T00:05:44;49.42;;;26.68;;
30458;SDS011;17254;50.976;7.034;2022-12-11T00:05:50;49.76;;;26.40;;
30458;SDS011;17254;50.976;7.034;2022-12-11T00:05:56;50.53;;;25.80;;
30458;SDS011;17254;50.976;7.034;2022-12-11T00:06:03;51.03;;;25.23;;
30458;SDS011;17254;50.976;7.034;2022-12-11T00:06:11;50.23;;;25.03;;
30458;SDS011;17254;50.976;7.034;2022-12-11T00:06:19;49.59;;;25.13;;
30458;SDS011;17254;50.976;7.034;2022-12-11T00:06:26;47.56;;;24.74;;
30458;SDS011;17254;50.976;7.034;2022-12-11T00:06:32;46.28;;;25.30;;
30458;SDS011;17254;50.976;7.034;2022-12-11T00:06:38;45.95;;;26.00;;
30458;SDS011;17254;50.976;7.034;2022-12-11T00:06:45;47.64;;;26.86;;
30458;SDS011;17254;50.976;7.034;2022-12-11T00:06:54;50.33;;;27.56;;
30458;SDS011;17254;50.976;7.034;2022-12-11T00:07:00;50.63;;;27.48;;
30458;SDS011;17254;50.976;7.034;2022-12-11T00:07:06;51.80;;;27.02;;
30458;SDS011;17254;50.976;7.034;2022-12-11T00:07:12;50.90;;;26.60;;
30458;SDS011;17254;50.976;7.034;2022-12-11T00:07:18;50.08;;;26.08;;
30458;SDS011;17254;50.976;7.034;2022-12-11T00:07:24;48.85;;;25.25;;
30458;SDS011;17254;50.976;7.034;2022-12-11T00:07:31;49.36;;;25.12;;
30458;SDS011;17254;50.976;7.034;2022-12-11T00:07:37;49.85;;;25.58;;
30458;SDS011;17254;50.976;7.034;2022-12-11T00:07:42;49.88;;;25.63;;
30458;SDS011;17254;50.976;7.034;2022-12-11T00:07:48;49.78;;;25.70;;
30458;SDS011;17254;50.976;7.034;2022-12-11T00:07:54;50.27;;;26.00;;
30458;SDS011;17254;50.976;7.034;2022-12-11T00:08:01;48.13;;;25.97;;
30458;SDS011;17254;50.976;7.034;2022-12-11T00:08:08;48.73;;;25.67;;
30458;SDS011;17254;50.976;7.034;2022-12-11T00:08:14;48.70;;;25.55;;
30458;SDS011;17254;50.976;7.034;2022-12-11T00:08:20;48.78;;;25.70;;
30458;SDS011;17254;50.976;7.034;2022-12-11T00:08:26;49.95;;;25.63;;
30458;SDS011;17254;50.976;7.034;2022-12-11T00:08:32;51.67;;;25.70;;
30458;SDS011;17254;50.976;7.034;2022-12-11T00:08:38;50.97;;;25.50;;
30458;SDS011;17254;50.976;7.034;2022-12-11T00:08:44;51.47;;;25.20;;
30458;SDS011;17254;50.976;7.034;2022-12-11T00:08:50;51.40;;;25.15;;
30458;SDS011;17254;50.976;7.034;2022-12-11T00:08:57;49.60;;;25.72;;
30458;SDS011;17254;50.976;7.034;2022-12-11T00:09:03;48.63;;;25.43;;
30458;SDS011;17254;50.976;7.034;2022-12-11T00:09:09;49.10;;;25.48;;
30458;SDS011;17254;50.976;7.034;2022-12-11T00:09:16;48.00;;;25.17;;
30458;SDS011;17254;50.976;7.034;2022-12-11T00:09:22;48.66;;;25.28;;
30458;SDS011;17254;50.976;7.034;2022-12-11T00:09:28;49.80;;;24.77;;
30458;SDS011;17254;50.976;7.034;2022-12-11T00:09:34;50.20;;;24.80;;
30458;SDS011;17254;50.976;7.034;2022-12-11T00:09:41;49.70;;;24.56;;
30458;SDS011;17254;50.976;7.034;2022-12-11T00:09:48;51.52;;;24.94;;
30458;SDS011;17254;50.976;7.034;2022-12-11T00:09:53;49.13;;;24.20;;
30458;SDS011;17254;50.976;7.034;2022-12-11T00:09:59;49.05;;;24.80;;
30458;SDS011;17254;50.976;7.034;2022-12-11T00:10:06;48.55;;;25.00;;
30458;SDS011;17254;50.976;7.034;2022-12-11T00:10:12;48.64;;;25.58;;
30458;SDS011;17254;50.976;7.034;2022-12-11T00:10:18;48.13;;;25.88;;
30458;SDS011;17254;50.976;7.034;2022-12-11T00:10:24;49.60;;;25.75;;
30458;SDS011;17254;50.976;7.034;2022-12-11T00:10:30;50.40;;;25.57;;
30458;SDS011;17254;50.976;7.034;2022-12-11T00:10:36;51.38;;;25.83;;
30458;SDS011;17254;50.976;7.034;2022-12-11T00:10:46;51.10;;;26.00;;
30458;SDS011;17254;50.976;7.034;2022-12-11T00:10:52;51.15;;;26.46;;
30458;SDS011;17254;50.976;7.034;2022-12-11T00:10:58;51.67;;;26.98;;
30458;SDS011;17254;50.976;7.034;2022-12-11T00:11:06;51.20;;;26.38;;
30458;SDS011;17254;50.976;7.034;2022-12-11T00:11:13;51.47;;;25.58;;
30458;SDS011;17254;50.976;7.034;2022-12-11T00:11:21;54.50;;;25.88;;
30458;SDS011;17254;50.976;7.034;2022-12-11T00:11:28;55.12;;;25.63;;
30458;SDS011;17254;50.976;7.034;2022-12-11T00:11:34;55.40;;;26.42;;
30458;SDS011;17254;50.976;7.034;2022-12-11T00:11:41;53.63;;;26.27;;
30458;SDS011;17254;50.976;7.034;2022-12-11T00:11:47;51.00;;;25.75;;
30458;SDS011;17254;50.976;7.034;2022-12-11T00:11:53;50.47;;;25.65;;
30458;SDS011;17254;50.976;7.034;2022-12-11T00:11:59;49.80;;;25.87;;
30458;SDS011;17254;50.976;7.034;2022-12-11T00:12:06;50.77;;;25.70;;
30458;SDS011;17254;50.976;7.034;2022-12-11T00:12:12;52.70;;;26.23;;
30458;SDS011;17254;50.976;7.034;2022-12-11T00:12:18;52.83;;;26.65;;
30458;SDS011;17254;50.976;7.034;2022-12-11T00:12:24;51.13;;;26.00;;
30458;SDS011;17254;50.976;7.034;2022-12-11T00:12:30;51.88;;;25.83;;
30458;SDS011;17254;50.976;7.034;2022-12-11T00:12:36;51.10;;;25.73;;
30458;SDS011;17254;50.976;7.034;2022-12-11T00:12:42;51.22;;;25.48;;
30458;SDS011;17254;50.976;7.034;2022-12-11T00:12:48;51.75;;;25.42;;
30458;SDS011;17254;50.976;7.034;2022-12-11T00:12:54;52.54;;;25.64;;
30458;SDS011;17254;50.976;7.034;2022-12-11T00:13:00;51.50;;;25.87;;
30458;SDS011;17254;50.976;7.034;2022-12-11T00:13:08;50.96;;;26.14;;
30458;SDS011;17254;50.976;7.034;2022-12-11T00:13:14;50.74;;;26.64;;
30458;SDS011;17254;50.976;7.034;2022-12-11T00:13:20;49.92;;;25.85;;
30458;SDS011;17254;50.976;7.034;2022-12-11T00:13:26;49.70;;;25.77;;
30458;SDS011;17254;50.976;7.034;2022-12-11T00:13:32;49.43;;;25.60;;
30458;SDS011;17254;50.976;7.034;2022-12-11T00:13:38;51.07;;;25.57;;
30458;SDS011;17254;50.976;7.034;2022-12-11T00:13:44;50.93;;;25.60;;
30458;SDS011;17254;50.976;7.034;2022-12-11T00:13:50;50.65;;;26.00;;
30458;SDS011;17254;50.976;7.034;2022-12-11T00:13:55;50.35;;;26.00;;
30458;SDS011;17254;50.976;7.034;2022-12-11T00:14:01;48.90;;;25.05;;
30458;SDS011;17254;50.976;7.034;2022-12-11T00:14:07;48.63;;;24.65;;
30458;SDS011;17254;50.976;7.034;2022-12-11T00:14:14;48.45;;;24.17;;
30458;SDS011;17254;50.976;7.034;2022-12-11T00:14:21;50.07;;;24.53;;
30458;SDS011;17254;50.976;7.034;2022-12-11T00:14:27;51.53;;;25.52;;
30458;SDS011;17254;50.976;7.034;2022-12-11T00:14:33;52.40;;;26.53;;
30458;SDS011;17254;50.976;7.034;2022-12-11T00:14:39;49.12;;;26.22;;
30458;SDS011;17254;50.976;7.034;2022-12-11T00:14:45;49.30;;;26.63;;
30458;SDS011;17254;50.976;7.034;2022-12-11T00:14:51;50.50;;;27.40;;
30458;SDS011;17254;50.976;7.034;2022-12-11T00:14:57;49.35;;;27.15;;
30458;SDS011;17254;50.976;7.034;2022-12-11T00:15:03;50.50;;;27.25;;
30458;SDS011;17254;50.976;7.034;2022-12-11T00:15:10;53.17;;;28.00;;
30458;SDS011;17254;50.976;7.034;2022-12-11T00:15:16;54.36;;;28.00;;
30458;SDS011;17254;50.976;7.034;2022-12-11T00:15:25;53.11;;;27.11;;
30458;SDS011;17254;50.976;7.034;2022-12-11T00:15:31;53.30;;;27.03;;
30458;SDS011;17254;50.976;7.034;2022-12-11T00:15:38;54.75;;;27.08;;
30458;SDS011;17254;50.976;7.034;2022-12-11T00:15:44;52.90;;;27.17;;
30458;SDS011;17254;50.976;7.034;2022-12-11T00:15:50;53.08;;;26.98;;
30458;SDS011;17254;50.976;7.034;2022-12-11T00:15:56;52.88;;;26.88;;
30458;SDS011;17254;50.976;7.034;2022-12-11T00:16:06;54.23;;;26.67;;
30458;SDS011;17254;50.976;7.034;2022-12-11T00:16:13;55.53;;;26.93;;
30458;SDS011;17254;50.976;7.034;2022-12-11T00:16:21;59.70;;;27.87;;
30458;SDS011;17254;50.976;7.034;2022-12-11T00:16:27;59.77;;;28.60;;
30458;SDS011;17254;50.976;7.034;2022-12-11T00:16:33;59.75;;;28.83;;
30458;SDS011;17254;50.976;7.034;2022-12-11T00:16:39;59.50;;;29.15;;
30458;SDS011;17254;50.976;7.034;2022-12-11T00:16:46;57.95;;;29.17;;
30458;SDS011;17254;50.976;7.034;2022-12-11T00:16:52;56.32;;;28.80;;
30458;SDS011;17254;50.976;7.034;2022-12-11T00:16:58;55.08;;;28.25;;
30458;SDS011;17254;50.976;7.034;2022-12-11T00:17:04;54.38;;;28.00;;
30458;SDS011;17254;50.976;7.034;2022-12-11T00:17:15;53.23;;;27.11;;
30458;SDS011;17254;50.976;7.034;2022-12-11T00:17:21;54.23;;;27.23;;
30458;SDS011;17254;50.976;7.034;2022-12-11T00:17:27;56.10;;;28.10;;
30458;SDS011;17254;50.976;7.034;2022-12-11T00:17:34;56.33;;;28.80;;
30458;SDS011;17254;50.976;7.034;2022-12-11T00:17:40;58.00;;;29.46;;
30458;SDS011;17254;50.976;7.034;2022-12-11T00:17:46;57.57;;;29.10;;
30458;SDS011;17254;50.976;7.034;2022-12-11T00:17:52;58.70;;;29.30;;
30458;SDS011;17254;50.976;7.034;2022-12-11T00:17:58;58.40;;;29.00;;
30458;SDS011;17254;50.976;7.034;2022-12-11T00:18:04;61.38;;;29.00;;
30458;SDS011;17254;50.976;7.034;2022-12-11T00:18:10;64.30;;;29.10;;
30458;SDS011;17254;50.976;7.034;2022-12-11T00:18:17;66.03;;;29.27;;
30458;SDS011;17254;50.976;7.034;2022-12-11T00:18:23;65.90;;;29.42;;
30458;SDS011;17254;50.976;7.034;2022-12-11T00:18:29;65.03;;;29.88;;
30458;SDS011;17254;50.976;7.034;2022-12-11T00:18:35;63.78;;;30.13;;
30458;SDS011;17254;50.976;7.034;2022-12-11T00:18:41;62.08;;;29.70;;
30458;SDS011;17254;50.976;7.034;2022-12-11T00:18:47;62.83;;;30.10;;
30458;SDS011;17254;50.976;7.034;2022-12-11T00:18:53;63.58;;;30.17;;
30458;SDS011;17254;50.976;7.034;2022-12-11T00:18:59;64.45;;;29.58;;
30458;SDS011;17254;50.976;7.034;2022-12-11T00:19:06;65.83;;;29.73;;
30458;SDS011;17254;50.976;7.034;2022-12-11T00:19:12;64.54;;;29.88;;
30458;SDS011;17254;50.976;7.034;2022-12-11T00:19:18;64.40;;;30.53;;
30458;SDS011;17254;50.976;7.034;2022-12-11T00:19:24;65.00;;;30.92;;
30458;SDS011;17254;50.976;7.034;2022-12-11T00:19:30;65.10;;;31.50;;
30458;SDS011;17254;50.976;7.034;2022-12-11T00:19:36;64.57;;;31.73;;
30458;SDS011;17254;50.976;7.034;2022-12-11T00:19:42;66.80;;;32.33;;
30458;SDS011;17254;50.976;7.034;2022-12-11T00:19:47;66.03;;;31.77;;
30458;SDS011;17254;50.976;7.034;2022-12-11T00:19:53;63.83;;;31.23;;
30458;SDS011;17254;50.976;7.034;2022-12-11T00:20:00;63.12;;;30.76;;
30458;SDS011;17254;50.976;7.034;2022-12-11T00:20:06;62.70;;;30.23;;
30458;SDS011;17254;50.976;7.034;2022-12-11T00:20:13;62.13;;;29.70;;
30458;SDS011;17254;50.976;7.034;2022-12-11T00:20:20;63.34;;;29.88;;
30458;SDS011;17254;50.976;7.034;2022-12-11T00:20:26;64.25;;;29.85;;
30458;SDS011;17254;50.976;7.034;2022-12-11T00:20:32;63.72;;;30.40;;
30458;SDS011;17254;50.976;7.034;2022-12-11T00:20:38;63.42;;;30.88;;
30458;SDS011;17254;50.976;7.034;2022-12-11T00:20:44;63.80;;;31.23;;
30458;SDS011;17254;50.976;7.034;2022-12-11T00:20:50;64.17;;;31.03;;
30458;SDS011;17254;50.976;7.034;2022-12-11T00:20:58;64.03;;;31.33;;
30458;SDS011;17254;50.976;7.034;2022-12-11T00:21:06;65.91;;;30.51;;
30458;SDS011;17254;50.976;7.034;2022-12-11T00:21:14;64.73;;;30.30;;
30458;SDS011;17254;50.976;7.034;2022-12-11T00:21:20;63.35;;;30.13;;
30458;SDS011;17254;50.976;7.034;2022-12-11T00:21:26;62.63;;;29.97;;
30458;SDS011;17254;50.976;7.034;2022-12-11T00:21:32;60.72;;;30.00;;
30458;SDS011;17254;50.976;7.034;2022-12-11T00:21:38;60.80;;;29.65;;
30458;SDS011;17254;50.976;7.034;2022-12-11T00:21:45;62.18;;;29.60;;
30458;SDS011;17254;50.976;7.034;2022-12-11T00:21:51;61.63;;;29.23;;
30458;SDS011;17254;50.976;7.034;2022-12-11T00:21:57;62.10;;;29.23;;
30458;SDS011;17254;50.976;7.034;2022-12-11T00:22:03;63.00;;;29.67;;
30458;SDS011;17254;50.976;7.034;2022-12-11T00:22:09;63.10;;;30.15;;
30458;SDS011;17254;50.976;7.034;2022-12-11T00:22:15;66.65;;;31.05;;
30458;SDS011;17254;50.976;7.034;2022-12-11T00:22:21;68.33;;;31.57;;
30458;SDS011;17254;50.976;7.034;2022-12-11T00:22:28;67.80;;;31.30;;
30458;SDS011;17254;50.976;7.034;2022-12-11T00:22:34;67.85;;;31.35;;
30458;SDS011;17254;50.976;7.034;2022-12-11T00:22:40;67.00;;;30.60;;
30458;SDS011;17254;50.976;7.034;2022-12-11T00:22:46;63.28;;;29.70;;
30458;SDS011;17254;50.976;7.034;2022-12-11T00:22:53;62.00;;;29.37;;
30458;SDS011;17254;50.976;7.034;2022-12-11T00:22:59;63.55;;;29.70;;
30458;SDS011;17254;50.976;7.034;2022-12-11T00:23:05;65.03;;;30.35;;
30458;SDS011;17254;50.976;7.034;2022-12-11T00:23:11;65.68;;;30.92;;
30458;SDS011;17254;50.976;7.034;2022-12-11T00:23:17;64.63;;;30.90;;
30458;SDS011;17254;50.976;7.034;2022-12-11T00:23:22;64.70;;;31.13;;
30458;SDS011;17254;50.976;7.034;2022-12-11T00:23:29;64.23;;;31.93;;
30458;SDS011;17254;50.976;7.034;2022-12-11T00:23:35;64.45;;;31.52;;
30458;SDS011;17254;50.976;7.034;2022-12-11T00:23:41;63.67;;;31.48;;
30458;SDS011;17254;50.976;7.034;2022-12-11T00:23:47;66.72;;;32.60;;
30458;SDS011;17254;50.976;7.034;2022-12-11T00:23:53;67.20;;;32.70;;
30458;SDS011;17254;50.976;7.034;2022-12-11T00:23:59;65.75;;;31.95;;
30458;SDS011;17254;50.976;7.034;2022-12-11T00:24:05;64.25;;;31.45;;
30458;SDS011;17254;50.976;7.034;2022-12-11T00:24:11;64.22;;;30.92;;
30458;SDS011;17254;50.976;7.034;2022-12-11T00:24:18;65.07;;;30.83;;
30458;SDS011;17254;50.976;7.034;2022-12-11T00:24:24;65.40;;;30.63;;
30458;SDS011;17254;50.976;7.034;2022-12-11T00:24:30;64.63;;;30.37;;
30458;SDS011;17254;50.976;7.034;2022-12-11T00:24:36;64.75;;;30.80;;
30458;SDS011;17254;50.976;7.034;2022-12-11T00:24:42;65.55;;;31.20;;
30458;SDS011;17254;50.976;7.034;2022-12-11T00:24:48;63.08;;;30.15;;
30458;SDS011;17254;50.976;7.034;2022-12-11T00:24:55;61.44;;;29.30;;
30458;SDS011;17254;50.976;7.034;2022-12-11T00:25:01;64.65;;;29.85;;
30458;SDS011;17254;50.976;7.034;2022-12-11T00:25:07;65.68;;;29.73;;
30458;SDS011;17254;50.976;7.034;2022-12-11T00:25:14;64.00;;;29.48;;
30458;SDS011;17254;50.976;7.034;2022-12-11T00:25:20;66.90;;;30.20;;
30458;SDS011;17254;50.976;7.034;2022-12-11T00:25:25;66.97;;;30.73;;
30458;SDS011;17254;50.976;7.034;2022-12-11T00:25:31;65.15;;;30.58;;
30458;SDS011;17254;50.976;7.034;2022-12-11T00:25:39;63.43;;;31.17;;
30458;SDS011;17254;50.976;7.034;2022-12-11T00:25:47;65.23;;;31.69;;
30458;SDS011;17254;50.976;7.034;2022-12-11T00:25:53;63.88;;;31.60;;
30458;SDS011;17254;50.976;7.034;2022-12-11T00:25:59;64.70;;;31.63;;
30458;SDS011;17254;50.976;7.034;2022-12-11T00:26:12;64.20;;;31.20;;
30458;SDS011;17254;50.976;7.034;2022-12-11T00:26:19;62.63;;;30.80;;
30458;SDS011;17254;50.976;7.034;2022-12-11T00:26:25;61.63;;;30.48;;
30458;SDS011;17254;50.976;7.034;2022-12-11T00:26:32;61.20;;;30.28;;
30458;SDS011;17254;50.976;7.034;2022-12-11T00:26:38;62.22;;;30.42;;
30458;SDS011;17254;50.976;7.034;2022-12-11T00:26:44;62.95;;;30.58;;
30458;SDS011;17254;50.976;7.034;2022-12-11T00:26:50;62.83;;;30.92;;
30458;SDS011;17254;50.976;7.034;2022-12-11T00:26:55;62.77;;;31.00;;
30458;SDS011;17254;50.976;7.034;2022-12-11T00:27:01;61.75;;;30.73;;
30458;SDS011;17254;50.976;7.034;2022-12-11T00:27:08;62.63;;;30.50;;
30458;SDS011;17254;50.976;7.034;2022-12-11T00:27:15;63.58;;;31.02;;
30458;SDS011;17254;50.976;7.034;2022-12-11T00:27:21;65.53;;;31.08;;
30458;SDS011;17254;50.976;7.034;2022-12-11T00:27:28;66.23;;;31.23;;
30458;SDS011;17254;50.976;7.034;2022-12-11T00:27:34;65.22;;;31.05;;
30458;SDS011;17254;50.976;7.034;2022-12-11T00:27:40;63.40;;;31.02;;
30458;SDS011;17254;50.976;7.034;2022-12-11T00:27:46;63.70;;;31.13;;
30458;SDS011;17254;50.976;7.034;2022-12-11T00:27:51;64.22;;;31.20;;
30458;SDS011;17254;50.976;7.034;2022-12-11T00:27:57;65.30;;;31.13;;
30458;SDS011;17254;50.976;7.034;2022-12-11T00:28:03;66.67;;;30.93;;
30458;SDS011;17254;50.976;7.034;2022-12-11T00:28:11;66.06;;;30.50;;
30458;SDS011;17254;50.976;7.034;2022-12-11T00:28:18;62.73;;;29.58;;
30458;SDS011;17254;50.976;7.034;2022-12-11T00:28:25;60.03;;;29.87;;
30458;SDS011;17254;50.976;7.034;2022-12-11T00:28:32;60.60;;;30.32;;
30458;SDS011;17254;50.976;7.034;2022-12-11T00:28:38;60.42;;;30.80;;
30458;SDS011;17254;50.976;7.034;2022-12-11T00:28:44;62.37;;;31.17;;
30458;SDS011;17254;50.976;7.034;2022-12-11T00:28:51;63.53;;;31.53;;
30458;SDS011;17254;50.976;7.034;2022-12-11T00:28:57;62.90;;;31.06;;
30458;SDS011;17254;50.976;7.034;2022-12-11T00:29:03;62.88;;;30.73;;
30458;SDS011;17254;50.976;7.034;2022-12-11T00:29:10;63.30;;;30.60;;
30458;SDS011;17254;50.976;7.034;2022-12-11T00:29:18;62.53;;;30.10;;
30458;SDS011;17254;50.976;7.034;2022-12-11T00:29:24;63.53;;;30.27;;
30458;SDS011;17254;50.976;7.034;2022-12-11T00:29:30;63.07;;;30.20;;
30458;SDS011;17254;50.976;7.034;2022-12-11T00:29:36;63.47;;;30.35;;
30458;SDS011;17254;50.976;7.034;2022-12-11T00:29:42;64.18;;;30.38;;
30458;SDS011;17254;50.976;7.034;2022-12-11T00:29:49;63.53;;;30.00;;
30458;SDS011;17254;50.976;7.034;2022-12-11T00:29:55;63.33;;;30.02;;
30458;SDS011;17254;50.976;7.034;2022-12-11T00:30:01;65.72;;;31.00;;
30458;SDS011;17254;50.976;7.034;2022-12-11T00:30:07;66.65;;;30.98;;
30458;SDS011;17254;50.976;7.034;2022-12-11T00:30:14;65.77;;;30.87;;
30458;SDS011;17254;50.976;7.034;2022-12-11T00:30:20;65.53;;;31.30;;
30458;SDS011;17254;50.976;7.034;2022-12-11T00:30:26;64.90;;;31.27;;
30458;SDS011;17254;50.976;7.034;2022-12-11T00:30:32;63.83;;;30.85;;
30458;SDS011;17254;50.976;7.034;2022-12-11T00:30:38;63.23;;;31.00;;
30458;SDS011;17254;50.976;7.034;2022-12-11T00:30:45;65.57;;;30.93;;
30458;SDS011;17254;50.976;7.034;2022-12-11T00:30:51;64.90;;;30.50;;
30458;SDS011;17254;50.976;7.034;2022-12-11T00:30:57;63.65;;;29.60;;
30458;SDS011;17254;50.976;7.034;2022-12-11T00:31:03;62.13;;;28.92;;
30458;SDS011;17254;50.976;7.034;2022-12-11T00:31:11;61.23;;;28.87;;
30458;SDS011;17254;50.976;7.034;2022-12-11T00:31:20;60.74;;;29.48;;
30458;SDS011;17254;50.976;7.034;2022-12-11T00:31:26;60.90;;;29.60;;
30458;SDS011;17254;50.976;7.034;2022-12-11T00:31:32;61.40;;;30.00;;
30458;SDS011;17254;50.976;7.034;2022-12-11T00:31:40;63.50;;;30.23;;
30458;SDS011;17254;50.976;7.034;2022-12-11T00:31:46;63.53;;;30.30;;
30458;SDS011;17254;50.976;7.034;2022-12-11T00:31:52;63.35;;;30.17;;
30458;SDS011;17254;50.976;7.034;2022-12-11T00:31:58;65.07;;;31.07;;
30458;SDS011;17254;50.976;7.034;2022-12-11T00:32:04;65.10;;;31.45;;
30458;SDS011;17254;50.976;7.034;2022-12-11T00:32:10;63.36;;;31.20;;
30458;SDS011;17254;50.976;7.034;2022-12-11T00:32:16;63.27;;;30.87;;
30458;SDS011;17254;50.976;7.034;2022-12-11T00:32:21;62.55;;;30.65;;
30458;SDS011;17254;50.976;7.034;2022-12-11T00:32:27;60.38;;;29.70;;
30458;SDS011;17254;50.976;7.034;2022-12-11T00:32:34;58.23;;;29.13;;
30458;SDS011;17254;50.976;7.034;2022-12-11T00:32:39;58.15;;;29.05;;
30458;SDS011;17254;50.976;7.034;2022-12-11T00:32:46;59.57;;;29.43;;
30458;SDS011;17254;50.976;7.034;2022-12-11T00:32:52;62.17;;;29.90;;
30458;SDS011;17254;50.976;7.034;2022-12-11T00:32:58;65.00;;;30.63;;
30458;SDS011;17254;50.976;7.034;2022-12-11T00:33:03;64.93;;;30.77;;
30458;SDS011;17254;50.976;7.034;2022-12-11T00:33:11;63.90;;;30.80;;
30458;SDS011;17254;50.976;7.034;2022-12-11T00:33:18;62.20;;;31.07;;
30458;SDS011;17254;50.976;7.034;2022-12-11T00:33:25;59.70;;;30.47;;
30458;SDS011;17254;50.976;7.034;2022-12-11T00:33:31;59.82;;;30.07;;
30458;SDS011;17254;50.976;7.034;2022-12-11T00:33:37;62.97;;;30.23;;
30458;SDS011;17254;50.976;7.034;2022-12-11T00:33:43;63.13;;;29.92;;
30458;SDS011;17254;50.976;7.034;2022-12-11T00:33:49;61.67;;;29.53;;
30458;SDS011;17254;50.976;7.034;2022-12-11T00:33:55;62.83;;;29.95;;
30458;SDS011;17254;50.976;7.034;2022-12-11T00:34:01;64.80;;;30.75;;
30458;SDS011;17254;50.976;7.034;2022-12-11T00:34:07;65.93;;;30.85;;
30458;SDS011;17254;50.976;7.034;2022-12-11T00:34:16;65.87;;;30.85;;
30458;SDS011;17254;50.976;7.034;2022-12-11T00:34:21;67.50;;;30.58;;
30458;SDS011;17254;50.976;7.034;2022-12-11T00:34:27;66.95;;;30.23;;
30458;SDS011;17254;50.976;7.034;2022-12-11T00:34:34;63.75;;;29.83;;
30458;SDS011;17254;50.976;7.034;2022-12-11T00:34:40;62.23;;;29.53;;
30458;SDS011;17254;50.976;7.034;2022-12-11T00:34:46;64.03;;;30.30;;
30458;SDS011;17254;50.976;7.034;2022-12-11T00:34:52;63.33;;;30.27;;
30458;SDS011;17254;50.976;7.034;2022-12-11T00:34:58;64.53;;;30.27;;
30458;SDS011;17254;50.976;7.034;2022-12-11T00:35:04;68.90;;;30.38;;
30458;SDS011;17254;50.976;7.034;2022-12-11T00:35:10;68.68;;;30.52;;
30458;SDS011;17254;50.976;7.034;2022-12-11T00:35:16;67.93;;;30.05;;
30458;SDS011;17254;50.976;7.034;2022-12-11T00:35:22;67.75;;;29.30;;
30458;SDS011;17254;50.976;7.034;2022-12-11T00:35:28;67.18;;;29.35;;
30458;SDS011;17254;50.976;7.034;2022-12-11T00:35:36;64.37;;;29.37;;
30458;SDS011;17254;50.976;7.034;2022-12-11T00:35:43;65.68;;;29.60;;
30458;SDS011;17254;50.976;7.034;2022-12-11T00:35:50;67.02;;;30.14;;
30458;SDS011;17254;50.976;7.034;2022-12-11T00:35:55;67.47;;;31.10;;
30458;SDS011;17254;50.976;7.034;2022-12-11T00:36:01;67.90;;;31.48;;
30458;SDS011;17254;50.976;7.034;2022-12-11T00:36:11;68.75;;;31.20;;
30458;SDS011;17254;50.976;7.034;2022-12-11T00:36:19;66.90;;;31.34;;
30458;SDS011;17254;50.976;7.034;2022-12-11T00:36:26;65.85;;;31.03;;
30458;SDS011;17254;50.976;7.034;2022-12-11T00:36:32;63.40;;;29.83;;
30458;SDS011;17254;50.976;7.034;2022-12-11T00:36:38;62.90;;;29.70;;
30458;SDS011;17254;50.976;7.034;2022-12-11T00:36:45;63.00;;;28.90;;
30458;SDS011;17254;50.976;7.034;2022-12-11T00:36:51;62.63;;;28.10;;
30458;SDS011;17254;50.976;7.034;2022-12-11T00:36:57;61.85;;;28.52;;
30458;SDS011;17254;50.976;7.034;2022-12-11T00:37:03;63.67;;;29.30;;
30458;SDS011;17254;50.976;7.034;2022-12-11T00:37:09;66.30;;;30.00;;
30458;SDS011;17254;50.976;7.034;2022-12-11T00:37:15;67.73;;;31.20;;
30458;SDS011;17254;50.976;7.034;2022-12-11T00:37:21;68.20;;;32.00;;